Time;durP1;ratioP1;P1;durP2;ratioP2;P2;SDS_P1;SDS_P2;PMS_P1;PMS_P2;Temp;Humidity;BMP_temperature;BMP_pressure;BME280_temperature;BME280_humidity;BME280_pressure;Samples;Min_cycle;Max_cycle;Signal;HPM_P1;HPM_P2
2022/09/25 00:00:42;;;;;;;2.83;1.65;;;;;;;9.98;79.58;97709.78;6244754;23;20026;-84
2022/09/25 00:03:11;;;;;;;6.63;1.80;;;;;;;9.84;79.76;97693.03;6194996;23;20074;-84
2022/09/25 00:05:38;;;;;;;5.90;2.60;;;;;;;9.85;79.79;97703.59;6246249;22;20027;-84
2022/09/25 00:08:05;;;;;;;4.90;2.30;;;;;;;9.97;80.03;97712.88;6246501;22;20027;-84
2022/09/25 00:10:32;;;;;;;2.97;1.88;;;;;;;9.88;79.93;97702.09;6248097;22;20074;-84
2022/09/25 00:12:59;;;;;;;6.50;1.90;;;;;;;10.03;79.59;97722.38;6248363;23;20094;-85
2022/09/25 00:15:25;;;;;;;2.10;1.40;;;;;;;9.81;79.29;97696.44;6245888;23;20327;-83
2022/09/25 00:17:52;;;;;;;3.67;1.30;;;;;;;9.90;79.43;97724.41;6219802;23;20043;-88
2022/09/25 00:20:22;;;;;;;2.63;1.40;;;;;;;9.88;79.21;97732.91;6245903;23;20102;-84
2022/09/25 00:22:50;;;;;;;1.83;0.95;;;;;;;9.69;79.37;97708.19;6246494;22;20023;-83
2022/09/25 00:25:17;;;;;;;2.47;1.58;;;;;;;9.67;79.57;97701.50;6246057;22;20016;-87
2022/09/25 00:27:44;;;;;;;2.25;1.13;;;;;;;9.80;79.71;97714.78;6194349;23;20133;-85
2022/09/25 00:30:13;;;;;;;5.03;1.45;;;;;;;9.75;79.34;97717.72;6246155;22;20354;-84
2022/09/25 00:32:39;;;;;;;2.35;1.40;;;;;;;9.61;79.15;97687.31;6246001;22;20016;-84
2022/09/25 00:35:06;;;;;;;3.08;1.30;;;;;;;9.54;79.36;97695.31;6219519;23;20541;-84
2022/09/25 00:37:33;;;;;;;1.77;1.30;;;;;;;9.68;79.46;97735.84;6244858;23;20062;-85
2022/09/25 00:39:59;;;;;;;2.25;1.50;;;;;;;9.58;79.97;97727.00;6244922;23;20111;-88
2022/09/25 00:42:25;;;;;;;3.67;1.88;;;;;;;9.32;79.82;97683.75;6246560;22;20043;-92
2022/09/25 00:45:00;;;;;;;5.63;1.77;;;;;;;9.72;79.76;97732.06;6247098;22;20039;-91
2022/09/25 00:47:38;;;;;;;3.60;1.88;;;;;;;9.58;79.48;97701.66;6195475;23;20095;-84
2022/09/25 00:50:18;;;;;;;6.13;2.60;;;;;;;9.73;79.38;97741.81;6222442;23;20016;-85
2022/09/25 00:52:45;;;;;;;18.17;5.38;;;;;;;9.64;79.36;97725.63;6247346;22;20059;-85
2022/09/25 00:55:12;;;;;;;;;;;;;;;9.71;79.61;97741.41;6248254;22;20028;-86
2022/09/25 00:57:41;;;;;;;29.98;7.57;;;;;;;9.31;79.54;97692.28;6246779;22;19923;-87
2022/09/25 01:00:10;;;;;;;26.10;9.57;;;;;;;9.56;79.62;97742.91;6220063;23;20020;-85
2022/09/25 01:02:41;;;;;;;37.03;11.88;;;;;;;9.52;80.09;97727.56;6244923;23;20027;-86
2022/09/25 01:05:14;;;;;;;31.55;10.77;;;;;;;9.58;79.91;97729.72;6244721;23;20016;-88
2022/09/25 01:10:12;;;;;;;16.27;6.47;;;;;;;9.76;79.49;97745.81;6235092;22;20418;-89
2022/09/25 01:12:42;;;;;;;11.25;4.55;;;;;;;9.72;79.63;97739.47;6163312;23;20016;-92
2022/09/25 01:15:12;;;;;;;6.75;2.97;;;;;;;9.62;79.78;97738.78;6213299;23;20024;-86
2022/09/25 01:17:48;;;;;;;7.18;2.80;;;;;;;9.58;79.72;97745.28;6213868;23;20023;-93
2022/09/25 01:20:40;;;;;;;7.13;3.38;;;;;;;9.60;79.72;97745.72;6213267;23;20043;-86
2022/09/25 01:23:30;;;;;;;10.27;2.75;;;;;;;9.60;79.67;97745.72;6164660;23;20016;-86
2022/09/25 01:26:05;;;;;;;7.38;2.08;;;;;;;9.65;79.79;97754.47;6214944;23;20016;-85
2022/09/25 01:28:55;;;;;;;4.15;1.92;;;;;;;9.58;79.31;97735.16;6215626;23;20131;-86
2022/09/25 01:31:34;;;;;;;5.80;2.35;;;;;;;9.68;79.60;97752.22;6214736;23;20027;-86
2022/09/25 01:34:14;;;;;;;4.50;1.80;;;;;;;9.52;79.36;97722.91;6190461;23;20044;-88
2022/09/25 01:37:06;;;;;;;3.40;1.58;;;;;;;9.55;79.47;97741.31;6189350;23;20016;-88
2022/09/25 01:39:42;;;;;;;2.75;1.60;;;;;;;9.45;79.22;97730.88;6212890;23;20021;-86
2022/09/25 01:42:18;;;;;;;2.70;1.50;;;;;;;9.43;79.67;97718.72;6187523;23;20103;-93
2022/09/25 01:44:57;;;;;;;3.33;1.60;;;;;;;9.57;79.52;97743.69;6187826;23;20083;-90
2022/09/25 01:47:28;;;;;;;3.83;1.48;;;;;;;9.51;79.30;97737.69;6187577;23;20020;-86
2022/09/25 01:50:01;;;;;;;2.45;1.50;;;;;;;9.69;79.21;97757.31;6227275;23;20063;-92
2022/09/25 01:52:36;;;;;;;2.50;1.25;;;;;;;9.60;79.09;97752.00;6244791;23;20462;-94
2022/09/25 01:55:12;;;;;;;1.00;0.90;;;;;;;9.60;79.46;97746.53;6245025;23;20023;-86
2022/09/25 01:58:13;;;;;;;1.70;1.10;;;;;;;9.54;78.74;97741.69;6244468;23;20012;-86
2022/09/25 02:00:54;;;;;;;1.05;0.90;;;;;;;9.59;78.64;97757.78;6219539;23;20026;-92
2022/09/25 02:03:29;;;;;;;6.68;1.00;;;;;;;9.62;79.07;97763.34;6247192;22;20066;-86
2022/09/25 02:06:03;;;;;;;6.07;1.00;;;;;;;9.50;79.02;97768.81;6246640;23;20020;-90
2022/09/25 02:08:44;;;;;;;1.10;0.90;;;;;;;9.49;79.25;97783.59;6246524;23;20015;-84
2022/09/25 02:11:13;;;;;;;0.80;0.77;;;;;;;9.37;79.27;97757.16;6246930;23;20178;-93
2022/09/25 02:14:20;;;;;;;0.80;0.80;;;;;;;9.52;79.23;97780.19;6221257;23;20024;-92
2022/09/25 02:16:54;;;;;;;1.08;0.85;;;;;;;9.56;79.07;97792.00;6130437;23;20017;-92
2022/09/25 02:22:19;;;;;;;0.77;0.77;;;;;;;9.42;78.56;97769.75;6246207;22;20102;-86
2022/09/25 02:24:56;;;;;;;0.80;0.80;;;;;;;9.59;78.92;97794.03;6246041;22;20023;-89
2022/09/25 02:27:26;;;;;;;0.88;0.80;;;;;;;9.57;78.95;97793.59;6246099;22;20027;-91
2022/09/25 02:29:52;;;;;;;1.42;0.80;;;;;;;9.52;78.62;97776.66;6244015;23;20016;-92
2022/09/25 02:32:27;;;;;;;1.08;0.80;;;;;;;9.65;78.18;97800.84;6243729;23;20023;-93
2022/09/25 02:34:55;;;;;;;3.55;1.00;;;;;;;9.46;78.49;97786.22;6246123;22;20077;-94
2022/09/25 02:37:21;;;;;;;1.85;1.08;;;;;;;9.31;78.53;97769.44;6244855;23;20020;-89
2022/09/25 02:39:51;;;;;;;1.20;1.08;;;;;;;9.57;78.76;97800.97;6244115;23;20024;-86
2022/09/25 02:42:37;;;;;;;0.88;0.88;;;;;;;9.45;79.10;97784.63;6244916;23;20016;-90
2022/09/25 02:45:31;;;;;;;1.13;0.83;;;;;;;9.59;78.41;97799.50;6245768;23;20404;-86
2022/09/25 02:48:07;;;;;;;1.50;0.93;;;;;;;9.55;78.28;97806.00;6246312;23;20016;-87
2022/09/25 02:51:08;;;;;;;10.40;0.98;;;;;;;9.55;78.82;97804.06;6246481;23;20461;-86
2022/09/25 02:53:54;;;;;;;0.90;0.90;;;;;;;9.52;78.77;97807.47;6226737;23;20103;-86
2022/09/25 02:56:41;;;;;;;2.10;1.13;;;;;;;9.37;78.95;97780.88;6247353;22;20016;-85
2022/09/25 02:59:17;;;;;;;1.52;1.00;;;;;;;9.32;79.12;97783.84;6245468;23;20020;-85
2022/09/25 03:01:46;;;;;;;3.00;1.25;;;;;;;9.36;79.12;97787.47;6246678;22;20016;-92
2022/09/25 03:04:16;;;;;;;6.35;1.30;;;;;;;9.32;78.63;97787.38;6245870;22;20098;-86
2022/09/25 03:06:44;;;;;;;1.90;1.10;;;;;;;9.45;78.34;97811.91;6243941;23;20020;-86
2022/09/25 03:09:12;;;;;;;4.25;1.40;;;;;;;9.22;78.39;97779.66;6243889;23;20530;-90
2022/09/25 03:11:42;;;;;;;6.28;1.30;;;;;;;9.18;79.12;97776.81;6243562;23;20020;-86
2022/09/25 03:14:08;;;;;;;3.22;1.20;;;;;;;9.09;79.00;97767.16;6243847;23;20020;-88
2022/09/25 03:16:55;;;;;;;1.13;1.00;;;;;;;9.37;78.63;97814.44;6245871;22;20016;-85
2022/09/25 03:19:22;;;;;;;2.30;1.10;;;;;;;9.33;78.69;97820.88;6244109;23;20020;-86
2022/09/25 03:21:49;;;;;;;2.28;1.13;;;;;;;9.22;79.06;97800.66;6218344;23;20069;-92
2022/09/25 03:24:16;;;;;;;1.92;1.05;;;;;;;9.41;78.92;97828.16;6244066;23;20016;-86
2022/09/25 03:27:02;;;;;;;2.92;1.08;;;;;;;8.99;78.68;97767.63;6163928;23;20028;-85
2022/09/25 03:29:29;;;;;;;1.17;1.05;;;;;;;9.18;79.11;97806.81;6184716;23;20044;-86
2022/09/25 03:31:56;;;;;;;1.13;1.02;;;;;;;9.06;79.27;97790.44;6184018;23;20367;-91
2022/09/25 03:34:22;;;;;;;1.52;1.05;;;;;;;9.12;78.67;97793.75;6183958;23;20021;-92
2022/09/25 03:36:48;;;;;;;4.10;1.20;;;;;;;9.20;79.00;97809.19;6158059;23;20017;-87
2022/09/25 03:39:16;;;;;;;0.80;0.80;;;;;;;9.28;78.85;97832.03;6183078;23;20450;-86
2022/09/25 03:42:07;;;;;;;0.80;0.80;;;;;;;9.35;78.74;97845.88;6133531;23;20020;-91
2022/09/25 03:44:33;;;;;;;1.15;1.00;;;;;;;9.12;78.65;97818.28;6182297;23;20023;-88
2022/09/25 03:47:01;;;;;;;1.20;0.90;;;;;;;9.26;79.02;97843.25;6181880;23;20058;-86
2022/09/25 03:49:30;;;;;;;1.60;1.00;;;;;;;9.11;79.12;97820.22;6133264;23;20178;-85
2022/09/25 03:51:59;;;;;;;3.92;0.90;;;;;;;9.14;78.68;97818.75;6181555;23;20017;-85
2022/09/25 03:54:25;;;;;;;2.42;1.08;;;;;;;9.17;79.21;97832.47;6181277;23;20021;-88
2022/09/25 03:56:51;;;;;;;1.08;1.00;;;;;;;9.32;78.34;97849.28;6182167;23;20021;-90
2022/09/25 03:59:17;;;;;;;3.28;1.60;;;;;;;9.01;78.89;97814.41;6181851;23;20021;-86
2022/09/25 04:01:46;;;;;;;1.70;1.15;;;;;;;9.22;79.29;97847.03;6182090;23;20059;-86
2022/09/25 04:04:13;;;;;;;2.00;1.35;;;;;;;9.26;78.96;97853.38;6200591;23;20099;-89
2022/09/25 04:06:39;;;;;;;2.65;1.63;;;;;;;8.97;78.91;97800.66;6219699;23;20016;-87
2022/09/25 04:09:05;;;;;;;4.22;1.40;;;;;;;9.25;78.27;97838.16;6246237;23;20477;-86
2022/09/25 04:11:31;;;;;;;2.58;1.25;;;;;;;9.18;78.21;97841.44;6247036;22;20016;-86
2022/09/25 04:13:57;;;;;;;2.15;1.27;;;;;;;9.32;78.11;97862.94;6244962;23;20547;-93
2022/09/25 04:16:24;;;;;;;2.22;1.20;;;;;;;9.02;78.19;97824.97;6244790;23;20012;-87
2022/09/25 04:18:50;;;;;;;3.20;1.42;;;;;;;9.26;78.49;97864.28;6245671;23;20024;-92
2022/09/25 04:21:16;;;;;;;2.88;1.23;;;;;;;9.39;78.24;97890.44;6244853;23;20020;-87
2022/09/25 04:24:47;;;;;;;4.78;1.75;;;;;;;9.12;78.50;97861.88;6193576;23;20089;-87
2022/09/25 04:26:29;;;;;;;2.70;1.70;;;;;;;9.05;78.36;97856.19;6246019;22;20099;-93
2022/09/25 04:28:55;;;;;;;2.72;1.30;;;;;;;9.21;78.81;97897.25;6195532;23;20022;-86
2022/09/25 04:31:22;;;;;;;2.45;1.30;;;;;;;9.07;79.32;97870.28;6245372;23;20020;-85
2022/09/25 04:33:49;;;;;;;1.00;0.90;;;;;;;9.09;78.86;97866.09;6248780;23;20039;-84
2022/09/25 04:36:17;;;;;;;2.40;1.30;;;;;;;9.05;78.92;97870.63;6249151;22;20039;-85
2022/09/25 04:38:43;;;;;;;0.90;0.90;;;;;;;9.09;78.52;97887.88;6257362;23;20015;-87
2022/09/25 04:41:10;;;;;;;1.23;1.00;;;;;;;8.99;79.22;97861.06;6240987;23;20020;-89
2022/09/25 04:43:36;;;;;;;4.57;1.00;;;;;;;9.16;79.03;97888.13;6266803;23;20065;-86
2022/09/25 04:46:04;;;;;;;3.97;1.52;;;;;;;9.06;78.78;97869.47;6265853;23;20020;-84
2022/09/25 04:48:31;;;;;;;3.25;1.60;;;;;;;9.23;79.09;97895.75;6265403;23;20038;-89
2022/09/25 04:50:57;;;;;;;2.88;1.33;;;;;;;9.34;78.32;97915.22;6249610;23;20047;-83
2022/09/25 04:53:26;;;;;;;2.50;1.50;;;;;;;9.08;78.13;97869.94;6245904;23;20027;-86
2022/09/25 04:55:54;;;;;;;3.63;1.77;;;;;;;9.11;78.19;97882.91;6246185;23;20012;-85
2022/09/25 04:58:20;;;;;;;2.67;1.30;;;;;;;9.29;78.50;97915.41;6244354;23;20531;-86
2022/09/25 05:00:53;;;;;;;1.92;1.10;;;;;;;9.07;78.93;97886.63;6244690;23;20101;-85
2022/09/25 05:03:19;;;;;;;4.15;1.73;;;;;;;9.08;78.46;97889.03;6242728;23;20023;-85
2022/09/25 05:05:45;;;;;;;1.85;1.30;;;;;;;9.17;78.71;97903.38;6244418;23;20020;-83
2022/09/25 05:08:11;;;;;;;2.85;1.40;;;;;;;9.14;77.78;97892.34;6243567;23;20016;-86
2022/09/25 05:10:39;;;;;;;3.45;1.90;;;;;;;9.15;78.40;97897.44;6242892;23;20477;-85
2022/09/25 05:13:07;;;;;;;4.03;1.40;;;;;;;9.29;78.17;97935.28;6217777;23;20482;-85
2022/09/25 05:15:34;;;;;;;2.55;1.30;;;;;;;9.31;78.63;97932.25;6242959;23;20075;-86
2022/09/25 05:18:27;;;;;;;2.38;1.38;;;;;;;9.42;78.39;97938.84;6244684;22;20197;-86
2022/09/25 05:20:53;;;;;;;3.40;1.80;;;;;;;9.38;78.42;97935.22;6236168;23;20016;-86
2022/09/25 05:23:20;;;;;;;2.13;1.60;;;;;;;9.46;78.50;97944.41;6192678;23;20016;-85
2022/09/25 05:25:55;;;;;;;4.57;2.80;;;;;;;9.48;78.20;97948.41;6217233;23;20016;-87
2022/09/25 05:28:22;;;;;;;2.63;1.70;;;;;;;9.46;78.02;97945.19;6192850;23;20019;-87
2022/09/25 05:30:48;;;;;;;4.38;2.10;;;;;;;9.34;77.78;97916.00;6217592;23;20031;-85
2022/09/25 05:33:14;;;;;;;9.38;2.80;;;;;;;9.37;78.11;97936.31;6218006;23;20016;-88
2022/09/25 05:35:40;;;;;;;4.38;1.83;;;;;;;9.29;77.87;97924.38;6219736;23;20020;-86
2022/09/25 05:38:07;;;;;;;2.85;1.50;;;;;;;9.50;77.49;97940.66;6245759;23;20102;-88
2022/09/25 05:40:34;;;;;;;1.83;1.20;;;;;;;9.26;77.88;97905.19;6194505;23;20106;-84
2022/09/25 05:43:02;;;;;;;3.07;1.47;;;;;;;9.49;77.38;97955.44;6244530;23;20511;-86
2022/09/25 05:45:28;;;;;;;2.55;1.50;;;;;;;9.25;77.71;97920.75;6243974;23;20016;-85
2022/09/25 05:48:05;;;;;;;2.80;1.63;;;;;;;9.55;77.56;97958.75;6243024;23;20012;-86
2022/09/25 05:50:32;;;;;;;2.33;1.33;;;;;;;9.55;77.28;97973.19;6245209;22;20103;-87
2022/09/25 05:53:00;;;;;;;2.50;1.60;;;;;;;9.58;77.40;97972.50;6243882;22;20020;-86
2022/09/25 05:55:26;;;;;;;2.10;1.60;;;;;;;9.55;77.11;97975.91;6244157;22;20517;-83
2022/09/25 05:57:52;;;;;;;2.80;1.70;;;;;;;9.55;77.40;97975.91;6244056;22;20016;-85
2022/09/25 06:00:19;;;;;;;3.08;1.42;;;;;;;9.47;77.58;97974.09;6242425;23;20107;-87
2022/09/25 06:02:45;;;;;;;2.33;1.80;;;;;;;9.57;77.22;97983.75;6192416;23;20508;-88
2022/09/25 06:05:11;;;;;;;2.27;1.70;;;;;;;9.56;77.52;97980.22;6192409;23;20450;-87
2022/09/25 06:07:37;;;;;;;5.43;2.20;;;;;;;9.40;77.59;97958.28;6192704;23;20020;-86
2022/09/25 06:10:04;;;;;;;2.58;1.88;;;;;;;9.56;76.93;97979.44;6192733;23;20315;-86
2022/09/25 06:12:31;;;;;;;4.93;2.35;;;;;;;9.53;77.21;97980.91;6192697;23;20103;-85
2022/09/25 06:14:57;;;;;;;3.83;2.67;;;;;;;9.37;77.09;97964.41;6192736;23;20023;-86
2022/09/25 06:17:23;;;;;;;3.33;2.42;;;;;;;9.41;77.13;97969.97;6243092;23;20016;-84
2022/09/25 06:19:49;;;;;;;4.68;2.40;;;;;;;9.49;76.84;97979.19;6194336;23;20020;-88
2022/09/25 06:22:15;;;;;;;2.72;1.90;;;;;;;9.47;76.09;97978.72;6219371;23;20018;-86
2022/09/25 06:24:41;;;;;;;3.03;2.10;;;;;;;9.42;76.34;97960.66;6243883;23;20047;-88
2022/09/25 06:27:08;;;;;;;4.18;2.00;;;;;;;9.50;76.09;97984.28;6217587;23;20020;-85
2022/09/25 06:29:34;;;;;;;4.43;2.33;;;;;;;9.65;76.31;98004.69;6243195;23;20103;-86
2022/09/25 06:32:02;;;;;;;7.15;1.85;;;;;;;9.52;75.98;97982.03;6193169;23;20051;-86
2022/09/25 06:34:29;;;;;;;3.50;2.10;;;;;;;9.52;76.45;97984.75;6242368;23;20059;-87
2022/09/25 06:36:55;;;;;;;3.73;2.17;;;;;;;9.74;76.64;98016.31;6191940;23;20098;-87
2022/09/25 06:39:21;;;;;;;3.58;2.33;;;;;;;9.77;76.62;98012.09;6242674;22;20105;-86
2022/09/25 06:41:51;;;;;;;;;;;;;;;9.81;75.69;98013.00;6217320;23;20513;-88
2022/09/25 06:44:23;;;;;;;4.57;1.70;;;;;;;9.82;76.36;98022.78;6217121;23;19973;-87
2022/09/25 06:46:53;;;;;;;4.93;2.20;;;;;;;9.82;76.12;98018.13;6191777;23;20016;-87
2022/09/25 06:49:20;;;;;;;3.10;2.17;;;;;;;9.81;76.60;98022.00;6241487;23;20016;-89
2022/09/25 06:51:46;;;;;;;3.80;2.50;;;;;;;9.85;76.68;98022.91;6241526;23;20016;-86
2022/09/25 06:54:12;;;;;;;2.72;1.92;;;;;;;9.77;76.09;98003.91;6216146;23;20023;-87
2022/09/25 06:56:38;;;;;;;6.53;2.35;;;;;;;9.88;76.26;98015.97;6241881;23;20369;-88
2022/09/25 06:59:05;;;;;;;15.75;3.40;;;;;;;9.65;75.25;97991.03;6190958;23;20023;-85
2022/09/25 07:01:31;;;;;;;3.83;2.65;;;;;;;9.82;75.13;98020.84;6242403;23;20635;-86
2022/09/25 07:03:57;;;;;;;6.78;3.70;;;;;;;9.80;75.81;98027.78;6219041;23;20091;-89
2022/09/25 07:06:32;;;;;;;5.43;3.40;;;;;;;9.82;75.65;98033.69;6218565;23;20020;-88
2022/09/25 07:08:58;;;;;;;4.88;3.50;;;;;;;9.86;75.87;98042.78;6243992;23;20660;-90
2022/09/25 07:14:14;;;;;;;5.75;3.30;;;;;;;9.56;75.67;97993.06;6242054;23;20102;-87
2022/09/25 07:16:40;;;;;;;6.53;3.22;;;;;;;9.87;75.76;98038.94;6216608;23;20012;-87
2022/09/25 07:19:08;;;;;;;5.03;3.30;;;;;;;9.90;75.20;98049.19;6191859;23;20453;-87
2022/09/25 07:21:35;;;;;;;10.63;3.90;;;;;;;9.86;76.22;98046.31;6240968;23;20488;-86
2022/09/25 07:24:01;;;;;;;11.37;4.13;;;;;;;9.76;75.18;98032.31;6215576;23;20118;-88
2022/09/25 07:26:29;;;;;;;5.45;4.05;;;;;;;9.84;75.28;98053.28;6243371;22;20020;-86
2022/09/25 07:29:00;;;;;;;7.47;3.78;;;;;;;9.92;75.17;98063.28;6217082;23;20073;-90
2022/09/25 07:31:29;;;;;;;11.00;5.65;;;;;;;9.92;75.50;98062.47;6217302;23;20100;-86
2022/09/25 07:33:58;;;;;;;4.93;3.10;;;;;;;9.89;75.20;98061.22;6244543;22;20099;-90
2022/09/25 07:36:24;;;;;;;2.65;1.80;;;;;;;9.62;75.67;98036.16;6245729;22;20046;-86
2022/09/25 07:38:52;;;;;;;4.70;2.00;;;;;;;9.76;76.22;98065.06;6217612;23;20027;-86
2022/09/25 07:41:19;;;;;;;2.00;1.60;;;;;;;9.74;76.50;98081.78;6242029;23;20044;-87
2022/09/25 07:43:45;;;;;;;6.88;1.67;;;;;;;9.70;76.53;98069.13;6192007;23;20595;-87
2022/09/25 07:46:13;;;;;;;1.70;1.42;;;;;;;9.71;75.95;98066.09;6192566;23;20019;-87
2022/09/25 07:48:39;;;;;;;3.20;1.77;;;;;;;9.65;76.33;98061.97;6193376;23;20016;-89
2022/09/25 07:51:09;;;;;;;5.23;1.77;;;;;;;9.75;76.34;98094.28;6242865;23;20016;-88
2022/09/25 07:53:36;;;;;;;5.82;1.88;;;;;;;9.53;76.86;98065.47;6218071;23;20012;-90
2022/09/25 07:56:03;;;;;;;3.17;1.75;;;;;;;9.75;76.73;98086.09;6243662;23;20070;-86
2022/09/25 07:58:29;;;;;;;5.28;1.83;;;;;;;9.93;76.34;98105.00;6193242;23;20091;-89
2022/09/25 08:01:02;;;;;;;5.53;2.08;;;;;;;9.84;76.53;98096.94;6244301;22;20070;-87
2022/09/25 08:03:29;;;;;;;5.95;2.00;;;;;;;9.86;76.74;98108.28;6245313;22;20019;-86
2022/09/25 08:06:08;;;;;;;4.50;2.05;;;;;;;9.76;76.58;98098.59;6219067;23;20044;-88
2022/09/25 08:08:37;;;;;;;6.80;2.47;;;;;;;9.87;76.66;98109.91;6194034;23;20453;-87
2022/09/25 08:11:08;;;;;;;3.10;2.20;;;;;;;9.84;77.00;98110.59;6218615;23;20023;-87
2022/09/25 08:13:37;;;;;;;5.22;2.40;;;;;;;9.92;76.62;98117.06;6245031;22;20018;-86
2022/09/25 08:16:12;;;;;;;5.22;2.72;;;;;;;10.00;76.25;98127.91;6193873;23;20435;-88
2022/09/25 08:18:44;;;;;;;3.75;2.13;;;;;;;9.99;76.28;98125.50;6219460;23;20099;-89
2022/09/25 08:21:13;;;;;;;3.97;2.10;;;;;;;9.83;76.27;98103.50;6218606;23;20023;-89
2022/09/25 08:23:44;;;;;;;8.15;2.25;;;;;;;9.88;75.49;98112.28;6243739;23;20398;-88
2022/09/25 08:26:10;;;;;;;6.13;2.17;;;;;;;9.95;74.60;98122.66;6244147;23;20016;-88
2022/09/25 08:28:36;;;;;;;4.20;2.30;;;;;;;9.77;74.69;98092.03;6218386;23;20016;-90
2022/09/25 08:31:03;;;;;;;4.70;2.42;;;;;;;9.86;74.81;98102.84;6193425;23;20465;-88
2022/09/25 08:33:30;;;;;;;7.03;2.47;;;;;;;9.97;74.38;98125.84;6245452;23;20016;-88
2022/09/25 08:35:59;;;;;;;4.65;2.30;;;;;;;10.06;74.45;98137.44;6195611;23;20016;-89
2022/09/25 08:38:28;;;;;;;3.83;2.10;;;;;;;10.06;73.89;98133.94;6220923;23;20028;-90
2022/09/25 08:41:02;;;;;;;3.75;2.20;;;;;;;10.05;73.79;98133.13;6246975;22;20057;-87
2022/09/25 08:43:33;;;;;;;31.50;2.92;;;;;;;9.97;72.25;98139.50;6218654;23;20019;-90
2022/09/25 08:49:06;;;;;;;7.88;2.30;;;;;;;10.33;72.57;98174.31;6245949;23;20039;-86
2022/09/25 08:51:44;;;;;;;6.53;2.20;;;;;;;10.24;71.60;98153.66;6221598;23;20430;-90
2022/09/25 08:54:20;;;;;;;2.55;1.73;;;;;;;10.10;71.61;98146.59;6221119;23;20450;-92
2022/09/25 08:56:55;;;;;;;2.65;1.70;;;;;;;10.04;71.81;98141.69;6195726;23;20038;-88
2022/09/25 08:59:31;;;;;;;4.22;2.38;;;;;;;10.38;72.61;98184.22;6196506;23;20020;-88
2022/09/25 09:02:09;;;;;;;5.47;2.83;;;;;;;10.33;72.68;98179.78;6195152;23;20019;-90
2022/09/25 09:05:00;;;;;;;6.28;3.53;;;;;;;10.25;71.96;98188.81;6192612;23;20088;-89
2022/09/25 09:07:36;;;;;;;8.23;3.60;;;;;;;10.25;72.25;98183.34;6243787;23;20357;-89
2022/09/25 09:10:07;;;;;;;9.00;4.57;;;;;;;10.09;72.24;98164.09;6193631;23;20368;-90
2022/09/25 09:12:40;;;;;;;6.60;4.55;;;;;;;10.25;71.51;98201.69;6193080;23;20026;-91
2022/09/25 09:15:31;;;;;;;7.80;5.25;;;;;;;10.20;72.96;98196.41;6242824;23;20250;-87
2022/09/25 09:18:04;;;;;;;14.88;6.03;;;;;;;10.16;71.97;98203.69;6155781;23;20013;-90
2022/09/25 09:20:48;;;;;;;7.90;5.68;;;;;;;9.80;71.15;98170.50;6107700;23;20024;-89
2022/09/25 09:23:21;;;;;;;10.98;6.80;;;;;;;10.09;71.39;98218.69;6179264;23;20021;-90
2022/09/25 09:25:59;;;;;;;10.02;6.22;;;;;;;9.96;71.62;98205.34;6157675;23;20043;-91
2022/09/25 09:29:08;;;;;;;13.65;6.90;;;;;;;10.05;72.43;98217.78;6133122;23;20028;-88
2022/09/25 09:32:10;;;;;;;13.48;6.57;;;;;;;9.77;71.93;98189.47;6158182;23;20108;-91
2022/09/25 09:34:44;;;;;;;15.75;7.18;;;;;;;10.04;72.43;98229.84;6182372;23;20620;-90
2022/09/25 09:37:48;;;;;;;11.65;6.80;;;;;;;10.06;73.06;98229.50;6132244;23;20474;-91
2022/09/25 09:40:15;;;;;;;10.60;5.45;;;;;;;10.03;72.25;98233.72;6157115;23;20025;-91
2022/09/25 09:43:08;;;;;;;10.15;5.40;;;;;;;9.91;72.60;98220.00;6157033;23;20304;-90
2022/09/25 09:45:48;;;;;;;10.15;5.07;;;;;;;10.01;72.71;98222.31;6132720;23;20025;-90
2022/09/25 09:48:32;;;;;;;9.30;5.20;;;;;;;10.06;72.04;98229.50;6107176;23;20370;-90
2022/09/25 09:51:06;;;;;;;12.43;5.72;;;;;;;9.92;73.15;98207.94;6155641;23;20017;-90
2022/09/25 09:53:43;;;;;;;9.68;5.18;;;;;;;10.02;70.88;98218.44;6130469;23;20028;-91
2022/09/25 09:56:19;;;;;;;8.82;4.82;;;;;;;10.28;71.26;98242.00;6129839;23;20789;-91
2022/09/25 09:59:02;;;;;;;8.65;4.88;;;;;;;10.38;70.40;98238.84;6155271;23;20113;-88
2022/09/25 10:01:38;;;;;;;10.35;5.18;;;;;;;10.51;71.08;98245.13;6181538;23;20020;-89
2022/09/25 10:04:25;;;;;;;10.82;5.10;;;;;;;10.45;71.11;98233.63;6189968;23;20012;-90
2022/09/25 10:07:02;;;;;;;9.97;5.07;;;;;;;10.46;68.76;98223.47;6192310;23;20052;-89
2022/09/25 10:09:28;;;;;;;7.20;4.00;;;;;;;10.50;70.63;98217.03;6216698;23;20247;-91
2022/09/25 10:12:08;;;;;;;6.35;3.55;;;;;;;10.65;71.81;98217.50;6217051;23;20043;-89
2022/09/25 10:14:41;;;;;;;4.78;2.60;;;;;;;10.69;70.27;98223.88;6192201;23;20022;-92
2022/09/25 10:17:10;;;;;;;2.90;2.00;;;;;;;10.71;69.71;98241.53;6242799;23;20026;-91
2022/09/25 10:20:13;;;;;;;4.18;2.40;;;;;;;10.81;69.52;98245.75;6193116;23;20024;-90
2022/09/25 10:22:44;;;;;;;3.88;2.53;;;;;;;10.67;70.30;98226.16;6218349;23;20020;-92
2022/09/25 10:25:10;;;;;;;8.65;2.25;;;;;;;10.57;68.31;98217.25;6193422;23;20349;-90
2022/09/25 10:27:46;;;;;;;4.53;2.30;;;;;;;10.72;69.16;98232.19;6218419;23;20031;-90
2022/09/25 10:30:19;;;;;;;5.57;2.93;;;;;;;10.76;70.69;98241.31;6192452;23;20026;-89
2022/09/25 10:33:19;;;;;;;4.70;2.80;;;;;;;10.86;69.93;98261.94;6242818;23;20159;-89
2022/09/25 10:35:47;;;;;;;9.65;3.22;;;;;;;10.74;70.21;98267.38;6218032;23;20044;-90
2022/09/25 10:38:41;;;;;;;9.68;3.47;;;;;;;10.46;69.75;98259.00;6194026;23;20051;-90
2022/09/25 10:41:17;;;;;;;5.63;3.67;;;;;;;10.45;69.40;98271.06;6192909;23;20020;-90
2022/09/25 10:44:00;;;;;;;7.75;4.00;;;;;;;10.39;69.70;98275.16;6191429;23;20107;-90
2022/09/25 10:52:19;;;;;;;8.57;4.95;;;;;;;10.31;72.81;98274.91;6214738;23;20019;-88
2022/09/25 10:54:45;;;;;;;7.97;4.05;;;;;;;9.95;71.91;98226.38;6215128;23;20026;-87
2022/09/25 10:57:17;;;;;;;8.50;3.95;;;;;;;10.35;70.82;98286.75;6216073;23;20012;-90
2022/09/25 10:59:50;;;;;;;13.55;6.50;;;;;;;10.30;71.29;98281.50;6216476;23;20469;-86
2022/09/25 11:02:37;;;;;;;19.58;8.75;;;;;;;10.18;71.10;98265.03;6190314;23;20553;-90
2022/09/25 11:05:14;;;;;;;13.15;7.05;;;;;;;10.29;71.26;98281.84;6241824;23;20016;-91
2022/09/25 11:07:51;;;;;;;17.20;6.05;;;;;;;10.30;72.22;98278.78;6243336;22;20020;-87
2022/09/25 11:10:23;;;;;;;16.65;6.55;;;;;;;10.34;72.85;98287.09;6192794;23;20027;-84
2022/09/25 11:12:52;;;;;;;11.75;5.25;;;;;;;10.32;72.60;98276.50;6244874;23;20023;-93
2022/09/25 11:15:23;;;;;;;10.35;4.38;;;;;;;10.38;72.32;98298.94;6243928;23;20016;-87
2022/09/25 11:17:51;;;;;;;12.02;5.78;;;;;;;10.46;71.36;98302.72;6244027;23;20485;-87
2022/09/25 11:20:28;;;;;;;7.85;3.92;;;;;;;10.38;72.01;98296.22;6194501;23;20028;-88
2022/09/25 11:23:03;;;;;;;6.15;3.42;;;;;;;10.47;71.73;98301.59;6242485;23;20016;-88
2022/09/25 11:25:51;;;;;;;6.80;3.58;;;;;;;10.34;71.94;98296.09;6193628;23;20362;-86
2022/09/25 11:31:54;;;;;;;;;;;;;;;10.39;71.31;98319.66;6245183;23;20018;-93
2022/09/25 11:35:21;;;;;;;6.32;3.47;;;;;;;10.31;70.07;98317.81;6218316;23;19915;-90
2022/09/25 11:38:09;;;;;;;5.55;3.47;;;;;;;10.30;70.75;98319.75;6115841;23;20025;-91
2022/09/25 11:41:17;;;;;;;7.85;4.20;;;;;;;10.05;71.73;98287.97;6157198;23;20155;-88
2022/09/25 11:44:05;;;;;;;8.82;4.70;;;;;;;10.19;70.88;98320.47;6132043;23;20108;-89
2022/09/25 11:47:01;;;;;;;12.68;5.03;;;;;;;10.22;72.03;98331.50;6109294;23;20017;-90
2022/09/25 11:49:40;;;;;;;9.77;4.28;;;;;;;10.11;72.30;98303.81;6107711;23;20075;-92
2022/09/25 11:52:16;;;;;;;11.05;4.30;;;;;;;10.34;70.92;98337.06;6109226;23;20021;-89
2022/09/25 11:54:45;;;;;;;6.85;4.30;;;;;;;10.38;70.96;98339.13;6133624;23;20071;-91
2022/09/25 11:57:30;;;;;;;9.50;5.32;;;;;;;10.41;71.15;98339.25;6133452;23;20055;-88
2022/09/25 12:00:27;;;;;;;10.27;5.60;;;;;;;10.46;72.43;98344.53;6109259;23;20020;-90
2022/09/25 12:03:29;;;;;;;10.18;5.15;;;;;;;10.42;71.81;98321.72;6155695;23;20028;-92
2022/09/25 12:06:43;;;;;;;11.52;4.65;;;;;;;10.67;71.14;98335.47;6060709;23;20077;-89
2022/09/25 12:09:39;;;;;;;7.22;4.18;;;;;;;10.78;70.30;98331.97;6088318;23;20022;-91
2022/09/25 12:12:32;;;;;;;8.02;4.18;;;;;;;10.73;70.25;98317.72;6204595;23;20013;-89
2022/09/25 12:15:17;;;;;;;5.68;3.53;;;;;;;10.96;69.14;98329.03;6171590;23;20000;-92
2022/09/25 12:18:48;;;;;;;6.60;3.80;;;;;;;11.01;69.04;98339.75;6177975;23;20040;-86
2022/09/25 12:22:16;;;;;;;6.60;3.97;;;;;;;10.40;69.07;98239.31;6175772;23;20048;-84
2022/09/25 12:25:25;;;;;;;7.80;4.70;;;;;;;10.98;68.01;98341.22;6083724;23;20038;-86
2022/09/25 12:28:21;;;;;;;8.90;4.68;;;;;;;11.10;69.16;98345.13;6108041;23;20033;-86
2022/09/25 12:31:13;;;;;;;7.72;4.10;;;;;;;11.04;69.02;98348.06;6213663;23;20029;-84